createdAt,value
2017-06-05T00:00:38.807Z,0
2017-06-05T00:02:00.989Z,0
2017-06-05T00:03:23.135Z,0
2017-06-05T00:04:45.390Z,0
2017-06-05T00:06:07.254Z,0
2017-06-05T00:07:28.777Z,0
2017-06-05T00:08:50.971Z,0
2017-06-05T00:10:12.795Z,0
2017-06-05T00:11:34.635Z,0
2017-06-05T00:12:56.215Z,0
2017-06-05T00:14:18.374Z,0
2017-06-05T00:15:39.893Z,0
2017-06-05T00:17:02.363Z,0
2017-06-05T00:18:24.069Z,0
2017-06-05T00:19:45.894Z,0
2017-06-05T00:21:08.154Z,0
2017-06-05T00:22:30.344Z,0
2017-06-05T00:23:52.488Z,0
2017-06-05T00:25:14.969Z,0
2017-06-05T00:26:36.836Z,0
2017-06-05T00:27:59.307Z,0
2017-06-05T00:29:21.900Z,0
2017-06-05T00:30:43.804Z,0
2017-06-05T00:32:05.618Z,0
2017-06-05T00:33:27.883Z,0
2017-06-05T00:34:50.700Z,0
2017-06-05T00:36:11.904Z,0
2017-06-05T00:37:33.454Z,0
2017-06-05T00:38:55.609Z,0
2017-06-05T00:40:17.160Z,0
2017-06-05T00:41:38.971Z,0
2017-06-05T00:43:00.848Z,0
2017-06-05T00:44:22.661Z,0
2017-06-05T00:45:44.859Z,0
2017-06-05T00:47:07.014Z,0
2017-06-05T00:48:28.854Z,0
2017-06-05T00:49:51.320Z,0
2017-06-05T00:51:12.833Z,0
2017-06-05T00:52:34.994Z,0
2017-06-05T00:53:57.143Z,0
2017-06-05T00:55:18.976Z,0
2017-06-05T00:56:40.879Z,0
2017-06-05T00:58:03.034Z,0
2017-06-05T00:59:25.509Z,0
2017-06-05T01:00:47.677Z,0
2017-06-05T01:02:09.840Z,0
2017-06-05T01:03:31.675Z,0
2017-06-05T01:04:53.881Z,0
2017-06-05T01:06:16.036Z,0
2017-06-05T01:07:38.230Z,0
2017-06-05T01:09:00.512Z,0
2017-06-05T01:10:22.365Z,0
2017-06-05T01:11:43.885Z,0
2017-06-05T01:13:05.717Z,0
2017-06-05T01:14:26.925Z,0
2017-06-05T01:15:48.457Z,0
2017-06-05T01:17:10.654Z,0
2017-06-05T01:18:33.173Z,0
2017-06-05T01:19:55.744Z,0
2017-06-05T01:21:17.608Z,0
2017-06-05T01:22:39.496Z,0
2017-06-05T01:24:01.009Z,0
2017-06-05T01:25:23.234Z,0
2017-06-05T01:26:45.115Z,0
2017-06-05T01:28:07.246Z,0
2017-06-05T01:29:29.475Z,0
2017-06-05T01:30:51.638Z,0
2017-06-05T01:32:13.307Z,0
2017-06-05T01:33:35.138Z,0
2017-06-05T01:34:56.973Z,0
2017-06-05T01:36:18.485Z,0
2017-06-05T01:37:40.336Z,0
2017-06-05T01:39:01.906Z,0
2017-06-05T01:40:24.404Z,0
2017-06-05T01:41:46.247Z,0
2017-06-05T01:43:07.758Z,0
2017-06-05T01:44:28.963Z,0
2017-06-05T01:45:51.465Z,0
2017-06-05T01:47:13.312Z,0
2017-06-05T01:48:35.464Z,0
2017-06-05T01:49:57.314Z,0
2017-06-05T01:51:19.144Z,0
2017-06-05T01:52:40.683Z,0
2017-06-05T01:54:02.575Z,0
2017-06-05T01:55:24.084Z,0
2017-06-05T01:56:46.236Z,0
2017-06-05T01:58:08.141Z,0
2017-06-05T01:59:30.275Z,0
2017-06-05T02:00:52.756Z,0
2017-06-05T02:02:14.561Z,0
2017-06-05T02:03:37.077Z,4
2017-06-05T02:04:58.966Z,4
2017-06-05T02:06:20.797Z,4
2017-06-05T02:07:42.971Z,0
2017-06-05T02:09:04.486Z,4
2017-06-05T02:10:25.991Z,4
2017-06-05T02:11:48.126Z,4
2017-06-05T02:13:09.947Z,4
2017-06-05T02:14:32.105Z,4
2017-06-05T02:15:54.261Z,8
2017-06-05T02:17:15.760Z,8
2017-06-05T02:18:38.236Z,8
2017-06-05T02:20:00.704Z,8
2017-06-05T02:21:22.234Z,8
2017-06-05T02:22:44.393Z,12
2017-06-05T02:24:06.595Z,12
2017-06-05T02:25:28.201Z,16
2017-06-05T02:26:50.083Z,16
2017-06-05T02:28:11.620Z,24
2017-06-05T02:29:33.756Z,20
2017-06-05T02:30:55.574Z,28
2017-06-05T02:32:17.765Z,32
2017-06-05T02:33:39.574Z,36
2017-06-05T02:35:01.742Z,44
2017-06-05T02:36:23.606Z,52
2017-06-05T02:37:46.202Z,56
2017-06-05T02:39:08.254Z,68
2017-06-05T02:40:30.901Z,76
2017-06-05T02:41:52.421Z,88
2017-06-05T02:43:14.583Z,100
2017-06-05T02:44:36.244Z,116
2017-06-05T02:45:58.396Z,128
2017-06-05T02:47:20.549Z,148
2017-06-05T02:48:42.116Z,164
2017-06-05T02:50:04.635Z,184
2017-06-05T02:51:26.784Z,212
2017-06-05T02:52:48.601Z,232
2017-06-05T02:54:10.752Z,260
2017-06-05T02:55:32.661Z,288
2017-06-05T02:56:54.725Z,320
2017-06-05T02:58:16.871Z,348
2017-06-05T02:59:39.335Z,384
2017-06-05T03:01:00.867Z,420
2017-06-05T03:02:22.693Z,460
2017-06-05T03:03:44.214Z,500
2017-06-05T03:05:05.741Z,548
2017-06-05T03:06:27.913Z,596
2017-06-05T03:07:50.743Z,652
2017-06-05T03:09:13.285Z,704
2017-06-05T03:10:35.431Z,764
2017-06-05T03:11:56.663Z,820
2017-06-05T03:13:19.086Z,884
2017-06-05T03:14:41.037Z,944
2017-06-05T03:16:03.510Z,1012
2017-06-05T03:17:25.484Z,1076
2017-06-05T03:18:47.914Z,1144
2017-06-05T03:20:10.075Z,1212
2017-06-05T03:21:31.919Z,1300
2017-06-05T03:22:53.744Z,1376
2017-06-05T03:24:15.844Z,1448
2017-06-05T03:25:38.324Z,1520
2017-06-05T03:27:00.204Z,1604
2017-06-05T03:28:22.084Z,1688
2017-06-05T03:29:44.529Z,1776
2017-06-05T03:31:06.364Z,1856
2017-06-05T03:32:28.185Z,1948
2017-06-05T03:33:50.741Z,2048
2017-06-05T03:35:13.234Z,2156
2017-06-05T03:36:35.394Z,2268
2017-06-05T03:37:57.531Z,2372
2017-06-05T03:39:19.056Z,2484
2017-06-05T03:40:41.965Z,2608
2017-06-05T03:42:04.114Z,2748
2017-06-05T03:43:25.743Z,2896
2017-06-05T03:44:48.219Z,3060
2017-06-05T03:46:10.704Z,3268
2017-06-05T03:47:32.533Z,3500
2017-06-05T03:48:54.678Z,3728
2017-06-05T03:50:16.493Z,3960
2017-06-05T03:51:38.334Z,4184
2017-06-05T03:52:59.853Z,4380
2017-06-05T03:54:21.369Z,4560
2017-06-05T03:55:43.199Z,4724
2017-06-05T03:57:05.321Z,4820
2017-06-05T03:58:27.454Z,4868
2017-06-05T03:59:48.959Z,4908
2017-06-05T04:01:11.183Z,4960
2017-06-05T04:02:33.743Z,5000
2017-06-05T04:03:55.584Z,5036
2017-06-05T04:05:17.422Z,5076
2017-06-05T04:06:39.245Z,5168
2017-06-05T04:08:01.685Z,5328
2017-06-05T04:09:23.503Z,5444
2017-06-05T04:10:45.995Z,5716
2017-06-05T04:12:07.512Z,6004
2017-06-05T04:13:30.025Z,6152
2017-06-05T04:14:52.265Z,6088
2017-06-05T04:16:14.412Z,5956
2017-06-05T04:17:35.295Z,5852
2017-06-05T04:18:57.216Z,5808
2017-06-05T04:20:19.823Z,5892
2017-06-05T04:21:42.282Z,5992
2017-06-05T04:23:03.825Z,6116
2017-06-05T04:24:25.689Z,6244
2017-06-05T04:25:47.523Z,6460
2017-06-05T04:27:09.713Z,6620
2017-06-05T04:28:31.855Z,6804
2017-06-05T04:29:54.403Z,6860
2017-06-05T04:31:16.537Z,6948
2017-06-05T04:32:38.043Z,7116
2017-06-05T04:34:00.193Z,7340
2017-06-05T04:35:22.334Z,7744
2017-06-05T04:36:44.143Z,8108
2017-06-05T04:38:05.680Z,8260
2017-06-05T04:39:28.196Z,8484
2017-06-05T04:40:50.189Z,8604
2017-06-05T04:42:11.702Z,9000
2017-06-05T04:43:33.860Z,9480
2017-06-05T04:44:55.691Z,9768
2017-06-05T04:46:17.462Z,9824
2017-06-05T04:47:39.290Z,10164
2017-06-05T04:49:01.559Z,10544
2017-06-05T04:50:23.739Z,12456
2017-06-05T04:51:46.211Z,21248
2017-06-05T04:53:07.080Z,22944
2017-06-05T04:54:28.588Z,23232
2017-06-05T04:55:50.770Z,22848
2017-06-05T04:57:12.633Z,21216
2017-06-05T04:58:34.151Z,19456
2017-06-05T04:59:56.031Z,24512
2017-06-05T05:01:18.238Z,16832
2017-06-05T05:02:41.010Z,19744
2017-06-05T05:04:03.492Z,25056
2017-06-05T05:05:25.653Z,26560
2017-06-05T05:06:48.141Z,24544
2017-06-05T05:08:10.344Z,25600
2017-06-05T05:09:32.230Z,25152
2017-06-05T05:10:53.749Z,21792
2017-06-05T05:12:16.208Z,21312
2017-06-05T05:13:38.454Z,22624
2017-06-05T05:15:00.937Z,22112
2017-06-05T05:16:22.466Z,26272
2017-06-05T05:17:44.631Z,24864
2017-06-05T05:19:07.233Z,24960
2017-06-05T05:20:29.112Z,28960
2017-06-05T05:21:51.592Z,26752
2017-06-05T05:23:13.432Z,24864
2017-06-05T05:24:35.642Z,26656
2017-06-05T05:25:57.466Z,23904
2017-06-05T05:27:18.990Z,27456
2017-06-05T05:28:41.142Z,31360
2017-06-05T05:30:03.067Z,31456
2017-06-05T05:31:24.281Z,35104
2017-06-05T05:32:45.933Z,34528
2017-06-05T05:34:08.126Z,35488
2017-06-05T05:35:30.648Z,39936
2017-06-05T05:36:52.918Z,42240
2017-06-05T05:38:14.442Z,39200
2017-06-05T05:39:36.694Z,36224
2017-06-05T05:40:58.567Z,36128
2017-06-05T05:42:20.722Z,32576
2017-06-05T05:43:42.628Z,34816
2017-06-05T05:45:04.503Z,37376
2017-06-05T05:46:26.651Z,42208
2017-06-05T05:47:48.522Z,35072
2017-06-05T05:49:10.185Z,46336
2017-06-05T05:50:32.131Z,45632
2017-06-05T05:51:54.161Z,45408
2017-06-05T05:53:15.701Z,48992
2017-06-05T05:54:37.296Z,48032
2017-06-05T05:55:59.169Z,50848
2017-06-05T05:57:20.993Z,53568
2017-06-05T05:58:42.900Z,51968
2017-06-05T06:00:04.810Z,53568
2017-06-05T06:01:26.692Z,55616
2017-06-05T06:02:48.984Z,52096
2017-06-05T06:04:11.157Z,51200
2017-06-05T06:05:33.125Z,53248
2017-06-05T06:06:55.295Z,54240
2017-06-05T06:08:17.125Z,55808
2017-06-05T06:09:38.661Z,53664
2017-06-05T06:11:00.200Z,50944
2017-06-05T06:12:21.733Z,51104
2017-06-05T06:13:43.986Z,51584
2017-06-05T06:15:05.911Z,48736
2017-06-05T06:16:28.091Z,52096
2017-06-05T06:17:50.062Z,50240
2017-06-05T06:19:12.279Z,47424
2017-06-05T06:20:34.131Z,45216
2017-06-05T06:21:56.135Z,38816
2017-06-05T06:23:17.994Z,38240
2017-06-05T06:24:40.732Z,41792
2017-06-05T06:26:03.012Z,42720
2017-06-05T06:27:24.622Z,42176
2017-06-05T06:28:46.799Z,42080
2017-06-05T06:30:09.030Z,42016
2017-06-05T06:31:31.211Z,37024
2017-06-05T06:32:53.511Z,37248
2017-06-05T06:34:15.099Z,37984
2017-06-05T06:35:37.580Z,46080
2017-06-05T06:36:59.553Z,50752
2017-06-05T06:38:21.743Z,44832
2017-06-05T06:39:43.912Z,44000
2017-06-05T06:41:06.111Z,42720
2017-06-05T06:42:28.610Z,49568
2017-06-05T06:43:50.490Z,51040
2017-06-05T06:45:12.798Z,48960
2017-06-05T06:46:35.838Z,46368
2017-06-05T06:47:58.335Z,49504
2017-06-05T06:49:20.627Z,43488
2017-06-05T06:50:42.789Z,41920
2017-06-05T06:52:04.440Z,46656
2017-06-05T06:53:26.933Z,44352
2017-06-05T06:54:49.471Z,38144
2017-06-05T06:56:11.662Z,49888
2017-06-05T06:57:33.822Z,53632
2017-06-05T06:58:55.740Z,49472
2017-06-05T07:00:17.601Z,54880
2017-06-05T07:01:39.298Z,54400
2017-06-05T07:03:01.802Z,56896
2017-06-05T07:04:24.056Z,53664
2017-06-05T07:05:45.583Z,48320
2017-06-05T07:07:08.073Z,46528
2017-06-05T07:08:30.330Z,52320
2017-06-05T07:09:52.498Z,55488
2017-06-05T07:11:14.068Z,59680
2017-06-05T07:12:36.338Z,57280
2017-06-05T07:13:58.483Z,54624
2017-06-05T07:15:20.348Z,36320
2017-06-05T07:16:42.560Z,39808
2017-06-05T07:18:04.800Z,39104
2017-06-05T07:19:27.030Z,38784
2017-06-05T07:20:48.594Z,41728
2017-06-05T07:22:10.779Z,36064
2017-06-05T07:23:32.662Z,28768
2017-06-05T07:24:55.426Z,27616
2017-06-05T07:26:17.311Z,27040
2017-06-05T07:27:39.503Z,25728
2017-06-05T07:29:01.699Z,27648
2017-06-05T07:30:23.833Z,27744
2017-06-05T07:31:45.991Z,26656
2017-06-05T07:33:08.183Z,24384
2017-06-05T07:34:29.741Z,25152
2017-06-05T07:35:52.462Z,26048
2017-06-05T07:37:14.622Z,24768
2017-06-05T07:38:36.172Z,26112
2017-06-05T07:39:58.171Z,27424
2017-06-05T07:41:20.272Z,26400
2017-06-05T07:42:42.435Z,24352
2017-06-05T07:44:03.652Z,25056
2017-06-05T07:45:25.531Z,25984
2017-06-05T07:46:48.269Z,26592
2017-06-05T07:48:09.491Z,25280
2017-06-05T07:49:31.678Z,24736
2017-06-05T07:50:54.268Z,23680
2017-06-05T07:52:16.479Z,27584
2017-06-05T07:53:38.952Z,26528
2017-06-05T07:55:00.821Z,24544
2017-06-05T07:56:23.312Z,24128
2017-06-05T07:57:45.901Z,23904
2017-06-05T07:59:07.490Z,23808
2017-06-05T08:00:29.069Z,22176
2017-06-05T08:01:50.981Z,20896
2017-06-05T08:03:13.455Z,20800
2017-06-05T08:04:35.629Z,21024
2017-06-05T08:05:57.812Z,21728
2017-06-05T08:07:20.383Z,20512
2017-06-05T08:08:42.951Z,20288
2017-06-05T08:10:04.807Z,16384
2017-06-05T08:11:26.790Z,14328
2017-06-05T08:12:48.781Z,13928
2017-06-05T08:14:11.567Z,13816
2017-06-05T08:15:33.208Z,14248
2017-06-05T08:16:55.049Z,14344
2017-06-05T08:18:17.221Z,14216
2017-06-05T08:19:39.644Z,14004
2017-06-05T08:21:01.801Z,13980
2017-06-05T08:22:23.991Z,13848
2017-06-05T08:23:46.179Z,13704
2017-06-05T08:25:08.285Z,13928
2017-06-05T08:26:30.231Z,14076
2017-06-05T08:27:52.934Z,14576
2017-06-05T08:29:15.599Z,14816
2017-06-05T08:30:38.712Z,15208
2017-06-05T08:32:01.392Z,15348
2017-06-05T08:33:23.926Z,15496
2017-06-05T08:34:46.423Z,15908
2017-06-05T08:36:09.323Z,16152
2017-06-05T08:37:31.502Z,16336
2017-06-05T08:38:53.337Z,16832
2017-06-05T08:40:15.249Z,17024
2017-06-05T08:41:37.471Z,17088
2017-06-05T08:42:59.520Z,17088
2017-06-05T08:44:21.992Z,17312
2017-06-05T08:45:43.934Z,17376
2017-06-05T08:47:06.801Z,17696
2017-06-05T08:48:28.332Z,17696
2017-06-05T08:49:50.623Z,17760
2017-06-05T08:51:13.116Z,17728
2017-06-05T08:52:35.680Z,17568
2017-06-05T08:53:57.848Z,17664
2017-06-05T08:55:20.442Z,17760
2017-06-05T08:56:42.590Z,17920
2017-06-05T08:58:04.832Z,17920
2017-06-05T08:59:27.002Z,17856
2017-06-05T09:00:49.180Z,17824
2017-06-05T09:02:11.219Z,18112
2017-06-05T09:03:33.699Z,18464
2017-06-05T09:04:55.862Z,19008
2017-06-05T09:06:17.398Z,19520
2017-06-05T09:07:39.869Z,20000
2017-06-05T09:09:02.353Z,20416
2017-06-05T09:10:24.839Z,20608
2017-06-05T09:11:47.015Z,20864
2017-06-05T09:13:08.229Z,20992
2017-06-05T09:14:30.951Z,20768
2017-06-05T09:15:53.168Z,20416
2017-06-05T09:17:15.444Z,20096
2017-06-05T09:18:37.657Z,19680
2017-06-05T09:20:00.501Z,19456
2017-06-05T09:21:22.702Z,19328
2017-06-05T09:22:45.179Z,19392
2017-06-05T09:24:07.381Z,19456
2017-06-05T09:25:29.211Z,19296
2017-06-05T09:26:51.082Z,19360
2017-06-05T09:28:13.678Z,19360
2017-06-05T09:29:35.520Z,19136
2017-06-05T09:30:57.833Z,18912
2017-06-05T09:32:20.023Z,18912
2017-06-05T09:33:42.511Z,19072
2017-06-05T09:35:04.671Z,19552
2017-06-05T09:36:27.675Z,20384
2017-06-05T09:37:49.846Z,20960
2017-06-05T09:39:11.732Z,21120
2017-06-05T09:40:34.240Z,21120
2017-06-05T09:41:56.730Z,20992
2017-06-05T09:43:19.202Z,20832
2017-06-05T09:44:41.960Z,20576
2017-06-05T09:46:04.138Z,20288
2017-06-05T09:47:26.664Z,20224
2017-06-05T09:48:48.305Z,20320
2017-06-05T09:50:10.514Z,20160
2017-06-05T09:51:32.811Z,20160
2017-06-05T09:52:55.351Z,20000
2017-06-05T09:54:17.535Z,19840
2017-06-05T09:55:39.376Z,19328
2017-06-05T09:57:01.630Z,18688
2017-06-05T09:58:24.173Z,18176
2017-06-05T09:59:46.342Z,17856
2017-06-05T10:01:08.499Z,17568
2017-06-05T10:02:30.999Z,17504
2017-06-05T10:03:53.501Z,17376
2017-06-05T10:05:15.359Z,17216
2017-06-05T10:06:37.900Z,17472
2017-06-05T10:08:00.395Z,17920
2017-06-05T10:09:23.104Z,18432
2017-06-05T10:10:45.601Z,18976
2017-06-05T10:12:07.859Z,19488
2017-06-05T10:13:30.372Z,20032
2017-06-05T10:14:52.837Z,20224
2017-06-05T10:16:14.684Z,20128
2017-06-05T10:17:37.170Z,19936
2017-06-05T10:18:59.042Z,19680
2017-06-05T10:20:21.471Z,19680
2017-06-05T10:21:43.641Z,19584
2017-06-05T10:23:06.178Z,19456
2017-06-05T10:24:28.342Z,19296
2017-06-05T10:25:50.776Z,19040
2017-06-05T10:27:12.981Z,18624
2017-06-05T10:28:35.471Z,18048
2017-06-05T10:29:57.730Z,17696
2017-06-05T10:31:20.210Z,17408
2017-06-05T10:32:42.400Z,17024
2017-06-05T10:34:04.571Z,16448
2017-06-05T10:35:27.123Z,15620
2017-06-05T10:36:49.536Z,15156
2017-06-05T10:38:11.450Z,14896
2017-06-05T10:39:33.292Z,14868
2017-06-05T10:40:55.781Z,14888
2017-06-05T10:42:18.370Z,14916
2017-06-05T10:43:40.900Z,14876
2017-06-05T10:45:02.758Z,14716
2017-06-05T10:46:25.260Z,14552
2017-06-05T10:47:48.134Z,14380
2017-06-05T10:49:10.310Z,14304
2017-06-05T10:50:32.621Z,14180
2017-06-05T10:51:54.802Z,13852
2017-06-05T10:53:17.051Z,13200
2017-06-05T10:54:39.333Z,12508
2017-06-05T10:56:01.511Z,11864
2017-06-05T10:57:23.680Z,11336
2017-06-05T10:58:46.399Z,10656
2017-06-05T11:00:08.875Z,9972
2017-06-05T11:01:31.052Z,9224
2017-06-05T11:02:52.913Z,8660
2017-06-05T11:04:15.387Z,8284
2017-06-05T11:05:37.674Z,8028
2017-06-05T11:06:59.521Z,7820
2017-06-05T11:08:22.031Z,7668
2017-06-05T11:09:44.772Z,7452
2017-06-05T11:11:07.291Z,7268
2017-06-05T11:12:29.544Z,7152
2017-06-05T11:13:51.711Z,7096
2017-06-05T11:15:14.054Z,7060
2017-06-05T11:16:36.525Z,7020
2017-06-05T11:17:58.725Z,6964
2017-06-05T11:19:20.624Z,6760
2017-06-05T11:20:43.028Z,6804
2017-06-05T11:22:04.910Z,7040
2017-06-05T11:23:27.451Z,7324
2017-06-05T11:24:49.648Z,7192
2017-06-05T11:26:12.451Z,6980
2017-06-05T11:27:34.721Z,6740
2017-06-05T11:28:56.895Z,6672
2017-06-05T11:30:19.394Z,6668
2017-06-05T11:31:42.240Z,6324
2017-06-05T11:33:04.081Z,6120
2017-06-05T11:34:26.364Z,5948
2017-06-05T11:35:48.856Z,5816
2017-06-05T11:37:11.633Z,5728
2017-06-05T11:38:34.179Z,5680
2017-06-05T11:39:56.341Z,5632
2017-06-05T11:41:18.558Z,5596
2017-06-05T11:42:41.035Z,5628
2017-06-05T11:44:03.226Z,5684
2017-06-05T11:45:25.723Z,5636
2017-06-05T11:46:47.972Z,5656
2017-06-05T11:48:10.495Z,5740
2017-06-05T11:49:32.999Z,5732
2017-06-05T11:50:54.872Z,5760
2017-06-05T11:52:17.050Z,5752
2017-06-05T11:53:39.720Z,5780
2017-06-05T11:55:02.199Z,5708
2017-06-05T11:56:24.377Z,5640
2017-06-05T11:57:46.870Z,5524
2017-06-05T11:59:09.100Z,5424
2017-06-05T12:00:30.971Z,5380
2017-06-05T12:01:52.822Z,5364
2017-06-05T12:03:14.761Z,5364
2017-06-05T12:04:37.252Z,5344
2017-06-05T12:05:59.852Z,5316
2017-06-05T12:07:21.430Z,5308
2017-06-05T12:08:43.910Z,5336
2017-06-05T12:10:06.421Z,5392
2017-06-05T12:11:28.941Z,5536
2017-06-05T12:12:51.350Z,5528
2017-06-05T12:14:13.222Z,5480
2017-06-05T12:15:35.712Z,5536
2017-06-05T12:16:58.222Z,5560
2017-06-05T12:18:20.695Z,5624
2017-06-05T12:19:42.809Z,5676
2017-06-05T12:21:05.655Z,5804
2017-06-05T12:22:27.912Z,5812
2017-06-05T12:23:50.440Z,5732
2017-06-05T12:25:12.622Z,5676
2017-06-05T12:26:35.432Z,5632
2017-06-05T12:27:57.593Z,5712
2017-06-05T12:29:19.771Z,5624
2017-06-05T12:30:41.970Z,5488
2017-06-05T12:32:04.480Z,5368
2017-06-05T12:33:27.002Z,5448
2017-06-05T12:34:48.905Z,5880
2017-06-05T12:36:10.766Z,6476
2017-06-05T12:37:32.924Z,6972
2017-06-05T12:38:54.748Z,7532
2017-06-05T12:40:16.581Z,7736
2017-06-05T12:41:38.429Z,7920
2017-06-05T12:43:01.368Z,7260
2017-06-05T12:44:23.261Z,6976
2017-06-05T12:45:45.142Z,7328
2017-06-05T12:47:07.791Z,7208
2017-06-05T12:48:30.400Z,6572
2017-06-05T12:49:52.599Z,6996
2017-06-05T12:51:14.759Z,7384
2017-06-05T12:52:37.252Z,7428
2017-06-05T12:54:00.013Z,7148
2017-06-05T12:55:22.173Z,8820
2017-06-05T12:56:44.391Z,9168
2017-06-05T12:58:06.560Z,9180
2017-06-05T12:59:28.990Z,10224
2017-06-05T13:00:51.266Z,11296
2017-06-05T13:02:13.782Z,12576
2017-06-05T13:03:35.652Z,12376
2017-06-05T13:04:58.500Z,13188
2017-06-05T13:06:21.000Z,12700
2017-06-05T13:07:43.492Z,11832
2017-06-05T13:09:05.672Z,10884
2017-06-05T13:10:28.462Z,10420
2017-06-05T13:11:50.749Z,9240
2017-06-05T13:13:12.912Z,8452
2017-06-05T13:14:34.193Z,8036
2017-06-05T13:15:56.761Z,8040
2017-06-05T13:17:18.920Z,7844
2017-06-05T13:18:41.120Z,7436
2017-06-05T13:20:03.594Z,7720
2017-06-05T13:21:26.060Z,8080
2017-06-05T13:22:48.245Z,8412
2017-06-05T13:24:10.241Z,8676
2017-06-05T13:25:32.439Z,9112
2017-06-05T13:26:54.601Z,10948
2017-06-05T13:28:16.792Z,12352
2017-06-05T13:29:39.290Z,12924
2017-06-05T13:31:01.594Z,13488
2017-06-05T13:32:24.551Z,13612
2017-06-05T13:33:47.024Z,12820
2017-06-05T13:35:08.879Z,13000
2017-06-05T13:36:30.731Z,12552
2017-06-05T13:37:53.533Z,12244
2017-06-05T13:39:16.021Z,12212
2017-06-05T13:40:38.631Z,11112
2017-06-05T13:42:00.914Z,9904
2017-06-05T13:43:23.528Z,8564
2017-06-05T13:44:45.401Z,7876
2017-06-05T13:46:07.881Z,7268
2017-06-05T13:47:30.027Z,6868
2017-06-05T13:48:52.793Z,7164
2017-06-05T13:50:15.279Z,6928
2017-06-05T13:51:37.150Z,6248
2017-06-05T13:52:59.013Z,6348
2017-06-05T13:54:21.797Z,6152
2017-06-05T13:55:44.294Z,6028
2017-06-05T13:57:06.783Z,6256
2017-06-05T13:58:29.281Z,7788
2017-06-05T13:59:52.050Z,9772
2017-06-05T14:01:14.220Z,10816
2017-06-05T14:02:36.109Z,9992
2017-06-05T14:03:58.270Z,9160
2017-06-05T14:05:21.111Z,9756
2017-06-05T14:06:43.340Z,11552
2017-06-05T14:08:05.190Z,11284
2017-06-05T14:09:27.681Z,11472
2017-06-05T14:10:50.532Z,11080
2017-06-05T14:12:13.047Z,10440
2017-06-05T14:13:34.897Z,10676
2017-06-05T14:14:57.497Z,11084
2017-06-05T14:16:20.340Z,12412
2017-06-05T14:17:42.542Z,12864
2017-06-05T14:19:04.702Z,11576
2017-06-05T14:20:26.882Z,12180
2017-06-05T14:21:49.411Z,13336
2017-06-05T14:23:12.089Z,12648
2017-06-05T14:24:33.613Z,11296
2017-06-05T14:25:55.782Z,10208
2017-06-05T14:27:18.516Z,10124
2017-06-05T14:28:40.381Z,9644
2017-06-05T14:30:02.549Z,9880
2017-06-05T14:31:24.423Z,9996
2017-06-05T14:32:46.671Z,10836
2017-06-05T14:34:08.187Z,11412
2017-06-05T14:35:30.050Z,11940
2017-06-05T14:36:52.201Z,12732
2017-06-05T14:38:15.100Z,11808
2017-06-05T14:39:37.589Z,10084
2017-06-05T14:40:59.424Z,8604
2017-06-05T14:42:20.967Z,8504
2017-06-05T14:43:43.658Z,8768
2017-06-05T14:45:06.191Z,9412
2017-06-05T14:46:28.362Z,9428
2017-06-05T14:47:50.969Z,9116
2017-06-05T14:49:13.599Z,8640
2017-06-05T14:50:36.099Z,9468
2017-06-05T14:51:58.732Z,10236
2017-06-05T14:53:21.202Z,10888
2017-06-05T14:54:43.328Z,11908
2017-06-05T14:56:05.831Z,12300
2017-06-05T14:57:28.373Z,12520
2017-06-05T14:58:50.220Z,12084
2017-06-05T15:00:12.488Z,11388
2017-06-05T15:01:34.673Z,11652
2017-06-05T15:02:56.851Z,12132
2017-06-05T15:04:18.438Z,11556
2017-06-05T15:05:41.006Z,11668
2017-06-05T15:07:03.518Z,10560
2017-06-05T15:08:26.057Z,8740
2017-06-05T15:09:48.261Z,8744
2017-06-05T15:11:10.693Z,9548
2017-06-05T15:12:33.180Z,9512
2017-06-05T15:13:55.673Z,9252
2017-06-05T15:15:18.165Z,9620
2017-06-05T15:16:41.001Z,9608
2017-06-05T15:18:03.512Z,10900
2017-06-05T15:19:26.020Z,12616
2017-06-05T15:20:48.501Z,13784
2017-06-05T15:22:10.661Z,11884
2017-06-05T15:23:33.137Z,9948
2017-06-05T15:24:55.650Z,9088
2017-06-05T15:26:17.811Z,8672
2017-06-05T15:27:40.381Z,7864
2017-06-05T15:29:01.935Z,7632
2017-06-05T15:30:24.119Z,7428
2017-06-05T15:31:45.689Z,7508
2017-06-05T15:33:07.890Z,8340
2017-06-05T15:34:30.049Z,8232
2017-06-05T15:35:51.904Z,7992
2017-06-05T15:37:14.401Z,7608
2017-06-05T15:38:37.216Z,7332
2017-06-05T15:39:59.701Z,6588
2017-06-05T15:41:21.020Z,6504
2017-06-05T15:42:43.604Z,6920
2017-06-05T15:44:05.749Z,6796
2017-06-05T15:45:27.907Z,6944
2017-06-05T15:46:50.084Z,6836
2017-06-05T15:48:12.573Z,6212
2017-06-05T15:49:35.087Z,6328
2017-06-05T15:50:57.581Z,7464
2017-06-05T15:52:19.134Z,8176
2017-06-05T15:53:41.413Z,8532
2017-06-05T15:55:04.256Z,8124
2017-06-05T15:56:26.751Z,8740
2017-06-05T15:57:48.911Z,9760
2017-06-05T15:59:11.085Z,9528
2017-06-05T16:00:33.900Z,9312
2017-06-05T16:01:56.069Z,9204
2017-06-05T16:03:18.290Z,8916
2017-06-05T16:04:40.796Z,7820
2017-06-05T16:06:03.283Z,7464
2017-06-05T16:07:25.792Z,7020
2017-06-05T16:08:48.265Z,6768
2017-06-05T16:10:10.748Z,6996
2017-06-05T16:11:32.907Z,7308
2017-06-05T16:12:54.747Z,7320
2017-06-05T16:14:16.953Z,6824
2017-06-05T16:15:38.899Z,6652
2017-06-05T16:17:01.450Z,6608
2017-06-05T16:18:23.648Z,6440
2017-06-05T16:19:45.880Z,6240
2017-06-05T16:21:08.370Z,6800
2017-06-05T16:22:29.890Z,7128
2017-06-05T16:23:52.371Z,7468
2017-06-05T16:25:14.310Z,7308
2017-06-05T16:26:36.490Z,7476
2017-06-05T16:27:58.958Z,7328
2017-06-05T16:29:20.658Z,6932
2017-06-05T16:30:42.859Z,6548
2017-06-05T16:32:05.117Z,6592
2017-06-05T16:33:27.304Z,7048
2017-06-05T16:34:49.779Z,7020
2017-06-05T16:36:11.940Z,6440
2017-06-05T16:37:33.787Z,5940
2017-06-05T16:38:56.350Z,6064
2017-06-05T16:40:18.526Z,6728
2017-06-05T16:41:40.698Z,6780
2017-06-05T16:43:03.219Z,6808
2017-06-05T16:44:25.655Z,6768
2017-06-05T16:45:47.927Z,6644
2017-06-05T16:47:09.783Z,6500
2017-06-05T16:48:32.041Z,6368
2017-06-05T16:49:54.536Z,6244
2017-06-05T16:51:16.776Z,6096
2017-06-05T16:52:38.639Z,5884
2017-06-05T16:54:01.111Z,5848
2017-06-05T16:55:23.920Z,5768
2017-06-05T16:56:46.195Z,5544
2017-06-05T16:58:08.052Z,5368
2017-06-05T16:59:30.289Z,5580
2017-06-05T17:00:53.243Z,5600
2017-06-05T17:02:15.438Z,5704
2017-06-05T17:03:37.728Z,5888
2017-06-05T17:04:59.261Z,6020
2017-06-05T17:06:22.053Z,6148
2017-06-05T17:07:44.003Z,6052
2017-06-05T17:09:06.170Z,6124
2017-06-05T17:10:28.350Z,6268
2017-06-05T17:11:50.766Z,6104
2017-06-05T17:13:12.960Z,6316
2017-06-05T17:14:35.459Z,6252
2017-06-05T17:15:57.481Z,6172
2017-06-05T17:17:19.647Z,6060
2017-06-05T17:18:42.162Z,6320
2017-06-05T17:20:04.329Z,6440
2017-06-05T17:21:26.918Z,6508
2017-06-05T17:22:49.088Z,6352
2017-06-05T17:24:11.250Z,5788
2017-06-05T17:25:32.791Z,5424
2017-06-05T17:26:55.111Z,5368
2017-06-05T17:28:17.650Z,5396
2017-06-05T17:29:40.199Z,5664
2017-06-05T17:31:02.380Z,5812
2017-06-05T17:32:24.542Z,5756
2017-06-05T17:33:47.428Z,5628
2017-06-05T17:35:09.640Z,5556
2017-06-05T17:36:31.807Z,5536
2017-06-05T17:37:53.980Z,5412
2017-06-05T17:39:16.140Z,5440
2017-06-05T17:40:38.647Z,5396
2017-06-05T17:42:01.451Z,5424
2017-06-05T17:43:23.626Z,5436
2017-06-05T17:44:46.362Z,5472
2017-06-05T17:46:08.851Z,5568
2017-06-05T17:47:31.076Z,5592
2017-06-05T17:48:53.235Z,5608
2017-06-05T17:50:16.086Z,5612
2017-06-05T17:51:38.579Z,5528
2017-06-05T17:53:00.556Z,5528
2017-06-05T17:54:22.454Z,5488
2017-06-05T17:55:44.934Z,5412
2017-06-05T17:57:07.168Z,5344
2017-06-05T17:58:29.645Z,5324
2017-06-05T17:59:52.216Z,5268
2017-06-05T18:01:15.227Z,5140
2017-06-05T18:02:37.721Z,5012
2017-06-05T18:03:59.899Z,4892
2017-06-05T18:05:21.779Z,4796
2017-06-05T18:06:44.237Z,4720
2017-06-05T18:08:06.410Z,4660
2017-06-05T18:09:28.669Z,4648
2017-06-05T18:10:51.174Z,4608
2017-06-05T18:12:13.955Z,4528
2017-06-05T18:13:36.441Z,4444
2017-06-05T18:14:58.320Z,4364